Terminal Aerodrome Forecast
Issued by NWS

Home | Current Version | Previous Version | Text Only | Print | Product List | Glossary On
Versions: 1 2 3 4 5 6 7 8 9 10 11 12 13 14 15 16 17 18 19 20 21 22 23 24 25
000
FTUS41 KILN 011900 AAB
TAFLUK
TAF AMD
KLUK 011937Z 0120/0218 VRB03KT 4SM BR VCSH OVC012
      TEMPO 0120/0122 1 1/2SM -SNPL OVC008
     FM020400 30008KT P6SM OVC018
     FM021400 36005KT P6SM SCT025
      TEMPO 0215/0218 BKN025=

USA.gov is the U.S. government's official web portal to all federal, state and local government web resources and services.